Startpagina
METAR-TAF:

METAR-TAF

Vliegvelden :

Wattisham, Engeland

breedte: 52-07N, lengte: 000-58E, hoogte: 87 m

Actueel weer

Dit bericht is 44 minuten geleden gemaakt, om 19:50 UTC
Wind 11 kt uit het noorden
Temperatuur 13°C
Vochtigheid 77%
Druk 1007 hPa
Zicht 10 km of meer
Weinig wolken op 2200 ft
Gebroken wolken op 8000 ft

METAR: EGUW 031950Z 01011KT 9999 FEW022 BKN080 13/09 Q1007 TEMPO SCT022 RMK BLU TEMPO WHT

Tijdstip: 21:34 (20:34 UTC)

Verwachting

Dit bericht is 3 uur en het 56 minuten geleden gemaakt, om 16:38 UTC
Verwachting geldig van 03 om 18 UTC tot 04 om 02 UTC
Wind 12 kt uit het noorden
Zicht 10 km of meer
Verspreide wolken op 3000 ft
Tijdelijke
van 03 om 20 UTC tot 04 om 02 UTC
Zicht: 7000 m
Gebroken wolken op 700 ft
lichte regen
Kans 30% :
Tijdelijke
van 04 om 00 UTC tot 04 om 02 UTC
Gebroken wolken op 600 ft

TAF: EGUW 031638Z 0318/0402 35012KT 9999 SCT030 TEMPO 0320/0402 7000 -RA BKN007 PROB30 TEMPO 0400/0402 BKN006

Waarnemingen en weersverwachtingen van meer dan 4000 vliegvelden (METAR en TAF).

De beschikbare stations zijn de gele en rode punten op de kaart.

Ga met uw muis naar het station om de naam te zien.

Klik dan om waarnemingen en weersverwachtingen te zien.

kaart wijzigen: klik op de groene knoppen met een zwart kruis om in te zoomen, op de groene knop met een streepje om uit te zoomen of op de groene pijlen voor aangrenzende kaarten.


METAR-TAF: